Terminal Aerodrome Forecast
Issued by NWS Corpus Christi, TX

Home | Current Version | Previous Version | Text Only | Print | Product List | Glossary On
Versions: 1 2 3 4 5 6 7 8 9 10 11 12
000
FTUS44 KCRP 050528
TAFVCT
TAF
KVCT 050528Z 0506/0606 VRB04KT 6SM HZ SKC
      TEMPO 0510/0512 5SM BR
     FM051600 01012KT P6SM FEW040
     FM060000 VRB05KT P6SM SCT060 BKN250=

USA.gov is the U.S. government's official web portal to all federal, state and local government web resources and services.